Time;durP1;ratioP1;P1;durP2;ratioP2;P2;SDS_P1;SDS_P2;PMS_P1;PMS_P2;Temp;Humidity;BMP_temperature;BMP_pressure;BME280_temperature;BME280_humidity;BME280_pressure;Samples;Min_cycle;Max_cycle;Signal;HPM_P1;HPM_P2
2022/06/24 00:01:59;;;;;;;14.60;6.88;;;23.70;96.40;;;22.16;93.50;99558.81;5071495;28;20082;-83
2022/06/24 00:04:28;;;;;;;15.63;6.47;;;23.70;96.90;;;22.18;93.15;99559.38;5053690;28;20029;-83
2022/06/24 00:06:57;;;;;;;12.27;6.63;;;23.70;97.10;;;22.18;94.51;99544.66;5052589;28;20033;-83
2022/06/24 00:09:29;;;;;;;13.35;6.68;;;23.70;97.30;;;22.15;95.36;99537.75;5063132;28;20044;-83
2022/06/24 00:12:06;;;;;;;14.85;6.75;;;23.70;97.50;;;22.17;94.77;99532.75;5083920;22;20317;-84
2022/06/24 00:14:34;;;;;;;14.80;6.90;;;23.70;97.70;;;22.16;94.91;99525.56;5037536;28;20048;-84
2022/06/24 00:17:04;;;;;;;13.25;6.90;;;23.70;97.80;;;22.16;94.43;99508.09;5062858;28;20498;-84
2022/06/24 00:19:34;;;;;;;15.13;7.00;;;23.70;97.90;;;22.12;95.37;99510.59;5071942;28;20048;-84
2022/06/24 00:22:08;;;;;;;13.73;6.93;;;23.70;98.20;;;22.14;94.25;99504.78;5057148;28;20073;-84
2022/06/24 00:24:39;;;;;;;13.65;7.15;;;23.70;98.10;;;22.12;95.23;99495.91;5066935;28;20040;-84
2022/06/24 00:27:19;;;;;;;13.55;7.35;;;23.70;98.30;;;22.10;94.58;99498.97;5070189;28;20040;-84
2022/06/24 00:29:47;;;;;;;15.10;7.22;;;23.60;98.20;;;22.06;96.16;99495.13;5066373;28;20517;-84
2022/06/24 00:32:15;;;;;;;14.07;7.63;;;23.60;98.70;;;22.06;96.14;99497.91;5066225;28;20087;-84
2022/06/24 00:34:43;;;;;;;12.93;7.95;;;23.60;98.70;;;22.04;96.09;99500.13;5052681;28;20037;-84
2022/06/24 00:37:25;;;;;;;15.55;7.30;;;23.60;98.90;;;22.06;95.97;99520.06;5068223;28;20050;-84
2022/06/24 00:39:57;;;;;;;17.85;7.70;;;23.60;99.00;;;22.12;94.91;99545.81;5072179;28;20036;-84
2022/06/24 00:42:25;;;;;;;14.98;7.68;;;23.60;98.80;;;22.18;94.03;99562.13;5072526;28;20053;-84
2022/06/24 00:45:08;;;;;;;13.38;6.32;;;23.60;98.50;;;22.23;93.13;99575.94;5072636;28;20040;-84
2022/06/24 00:47:38;;;;;;;11.55;6.97;;;23.60;98.30;;;22.30;90.95;99585.94;5070775;28;20445;-84
2022/06/24 00:50:17;;;;;;;12.43;6.20;;;23.60;97.00;;;22.37;89.55;99583.66;5075988;28;20045;-84
2022/06/24 00:52:45;;;;;;;12.88;6.38;;;23.60;96.50;;;22.49;88.24;99583.34;5055272;28;20056;-84
2022/06/24 00:55:19;;;;;;;15.00;6.18;;;23.60;96.00;;;22.52;87.25;99593.84;5056908;28;20041;-84
2022/06/24 00:57:47;;;;;;;13.10;6.97;;;23.70;95.80;;;22.49;87.64;99595.25;5069090;28;20041;-84
2022/06/24 01:00:16;;;;;;;17.80;7.63;;;23.60;95.70;;;22.49;88.56;99589.72;5062743;28;20052;-84
2022/06/24 01:02:44;;;;;;;17.83;7.25;;;23.60;96.60;;;22.49;89.76;99600.81;5071514;28;20045;-84
2022/06/24 01:05:12;;;;;;;14.02;7.43;;;23.60;97.40;;;22.50;91.31;99602.44;5071168;28;20068;-84
2022/06/24 01:07:40;;;;;;;13.63;6.97;;;23.70;98.30;;;22.50;91.63;99596.06;5071403;28;20094;-84
2022/06/24 01:10:10;;;;;;;15.85;8.00;;;23.70;98.60;;;22.42;93.27;99598.34;5070197;28;20063;-84
2022/06/24 01:12:38;;;;;;;19.40;8.02;;;23.70;99.80;;;22.37;93.99;99614.16;5063301;28;20045;-84
2022/06/24 01:15:07;;;;;;;18.00;8.40;;;23.60;99.90;;;22.29;95.88;99615.59;5067113;28;20097;-84
2022/06/24 01:17:36;;;;;;;15.35;7.78;;;23.60;99.90;;;22.25;97.03;99628.38;5071277;28;20123;-84
2022/06/24 01:20:05;;;;;;;18.23;8.13;;;23.60;99.90;;;22.19;97.61;99624.75;5067889;28;20045;-84
2022/06/24 01:22:33;;;;;;;16.60;8.18;;;23.60;99.90;;;22.12;98.70;99617.84;5055752;28;20037;-85
2022/06/24 01:25:01;;;;;;;18.02;8.43;;;23.60;99.90;;;22.05;100.00;99626.50;5068441;28;20033;-84
2022/06/24 01:27:28;;;;;;;20.88;8.48;;;23.60;99.90;;;22.00;100.00;99618.19;5069694;28;20443;-84
2022/06/24 01:29:55;;;;;;;14.68;7.68;;;23.50;99.90;;;21.95;100.00;99610.72;5067584;28;20048;-84
2022/06/24 01:32:23;;;;;;;18.67;8.63;;;23.50;99.90;;;21.89;100.00;99602.72;5071257;28;20491;-85
2022/06/24 01:34:50;;;;;;;20.05;8.38;;;23.50;99.90;;;21.80;100.00;99594.13;5070488;28;20495;-84
2022/06/24 01:37:18;;;;;;;18.20;9.02;;;23.50;99.90;;;21.75;100.00;99599.72;5071401;28;20426;-84
2022/06/24 01:39:46;;;;;;;15.45;8.70;;;23.50;99.90;;;21.70;100.00;99592.22;5070479;28;20119;-84
2022/06/24 01:42:13;;;;;;;19.95;8.45;;;23.50;99.90;;;21.75;100.00;99591.41;5070940;28;20058;-84
2022/06/24 01:44:40;;;;;;;15.82;7.82;;;23.40;99.90;;;21.64;100.00;99587.81;5069323;28;20051;-84
2022/06/24 01:47:08;;;;;;;16.30;7.72;;;23.40;99.90;;;21.61;100.00;99607.75;5061319;28;20041;-84
2022/06/24 01:49:35;;;;;;;17.13;8.20;;;23.40;99.90;;;21.60;100.00;99628.25;5056686;28;20076;-84
2022/06/24 01:52:03;;;;;;;18.38;7.60;;;23.30;99.90;;;21.57;100.00;99624.13;5068687;28;20577;-84
2022/06/24 01:54:30;;;;;;;19.08;7.63;;;23.30;99.90;;;21.53;100.00;99616.63;5068768;28;20701;-84
2022/06/24 01:56:59;;;;;;;13.55;6.97;;;23.30;99.90;;;21.51;100.00;99627.16;5053089;28;20037;-84
2022/06/24 01:59:26;;;;;;;18.02;7.88;;;23.30;99.90;;;21.48;100.00;99628.56;5060860;28;20446;-84
2022/06/24 02:01:53;;;;;;;18.17;7.35;;;23.30;99.90;;;21.46;100.00;99619.72;5067101;28;20044;-85
2022/06/24 02:04:20;;;;;;;19.38;7.05;;;23.30;99.90;;;21.44;100.00;99619.16;5068012;28;20123;-85
2022/06/24 02:06:48;;;;;;;16.00;6.75;;;23.30;99.90;;;21.41;100.00;99619.69;5062028;28;20051;-85
2022/06/24 02:09:16;;;;;;;12.25;6.78;;;23.30;99.90;;;21.39;100.00;99632.97;5057915;28;20529;-85
2022/06/24 02:14:30;;;;;;;16.88;6.50;;;23.20;99.90;;;21.31;100.00;99628.00;5063232;28;20045;-85
2022/06/24 02:16:58;;;;;;;16.15;6.68;;;23.20;99.90;;;21.31;100.00;99626.06;5066911;28;20032;-85
2022/06/24 02:19:25;;;;;;;17.50;7.20;;;23.20;99.90;;;21.30;100.00;99621.59;5068054;28;20036;-85
2022/06/24 02:21:52;;;;;;;13.15;6.38;;;23.20;99.90;;;21.30;100.00;99624.38;5061303;28;20044;-85
2022/06/24 02:24:20;;;;;;;14.75;6.03;;;23.10;99.90;;;21.26;100.00;99617.75;5070164;28;20048;-85
2022/06/24 02:26:48;;;;;;;12.05;6.35;;;23.10;99.90;;;21.23;100.00;99619.13;5068822;28;20044;-85
2022/06/24 02:29:15;;;;;;;10.75;5.40;;;23.10;99.90;;;21.21;100.00;99631.56;5049797;28;20040;-85
2022/06/24 02:31:43;;;;;;;14.38;5.65;;;23.10;99.90;;;21.22;100.00;99634.06;5050016;28;20456;-85
2022/06/24 02:34:11;;;;;;;12.43;5.43;;;23.10;99.90;;;21.24;100.00;99626.31;5062118;28;20044;-85
2022/06/24 02:36:38;;;;;;;16.95;6.70;;;23.10;99.90;;;21.25;100.00;99625.22;5062797;28;20041;-85
2022/06/24 02:39:05;;;;;;;15.30;6.18;;;23.00;99.90;;;21.25;100.00;99608.63;5065618;28;20115;-85
2022/06/24 02:41:32;;;;;;;10.23;5.72;;;23.10;99.90;;;21.25;100.00;99610.56;5063829;28;20056;-85
2022/06/24 02:43:59;;;;;;;14.23;5.45;;;23.00;99.90;;;21.22;100.00;99605.56;5069663;28;20076;-85
2022/06/24 02:46:27;;;;;;;10.85;5.13;;;23.00;99.90;;;21.19;100.00;99606.13;5070004;28;20043;-85
2022/06/24 02:48:55;;;;;;;14.32;4.93;;;23.00;99.90;;;21.17;100.00;99609.19;5069390;28;20047;-85
2022/06/24 02:51:22;;;;;;;10.35;4.65;;;23.00;99.90;;;21.17;100.00;99597.25;5062002;28;20127;-85
2022/06/24 02:53:50;;;;;;;12.68;5.30;;;23.00;99.90;;;21.17;100.00;99586.19;5056717;28;20041;-85
2022/06/24 02:56:17;;;;;;;11.05;4.53;;;23.00;99.90;;;21.16;100.00;99577.06;5069935;28;20067;-85
2022/06/24 02:58:45;;;;;;;12.25;4.97;;;23.00;99.90;;;21.18;100.00;99565.72;5067136;28;20064;-85
2022/06/24 03:01:12;;;;;;;9.25;4.55;;;23.00;99.90;;;21.14;100.00;99570.16;5069868;28;20124;-85
2022/06/24 03:03:40;;;;;;;14.65;4.78;;;23.00;99.90;;;21.11;100.00;99573.47;5068592;28;20123;-85
2022/06/24 03:06:09;;;;;;;13.32;4.70;;;23.00;99.90;;;21.11;100.00;99576.25;5060617;28;20455;-85
2022/06/24 03:08:37;;;;;;;11.82;5.32;;;23.00;99.90;;;21.12;100.00;99594.53;5057342;28;20640;-85
2022/06/24 03:11:04;;;;;;;11.35;4.95;;;23.00;99.90;;;21.10;100.00;99592.03;5067755;28;20498;-85
2022/06/24 03:13:31;;;;;;;11.27;5.20;;;22.90;99.90;;;21.07;100.00;99604.47;5069230;28;20098;-85
2022/06/24 03:16:01;;;;;;;12.77;5.82;;;22.90;99.90;;;21.06;100.00;99602.81;5068414;28;20097;-85
2022/06/24 03:18:28;;;;;;;13.60;5.43;;;22.90;99.90;;;21.06;100.00;99600.03;5067812;28;20040;-85
2022/06/24 03:20:55;;;;;;;10.52;5.55;;;22.90;99.90;;;21.04;100.00;99591.19;5067577;28;20044;-85
2022/06/24 03:23:24;;;;;;;11.90;4.97;;;22.90;99.90;;;21.02;100.00;99593.41;5069394;28;20041;-85
2022/06/24 03:25:51;;;;;;;8.52;4.93;;;22.90;99.90;;;20.98;100.00;99592.31;5069473;28;20050;-85
2022/06/24 03:28:18;;;;;;;9.32;5.15;;;22.90;99.90;;;20.97;100.00;99592.59;5067139;28;20041;-85
2022/06/24 03:30:45;;;;;;;11.55;5.45;;;22.90;99.90;;;20.93;100.00;99603.38;5067516;28;20052;-85
2022/06/24 03:33:12;;;;;;;11.52;5.68;;;22.80;99.90;;;20.93;100.00;99597.00;5073211;28;20131;-85
2022/06/24 03:35:39;;;;;;;12.35;5.70;;;22.90;99.90;;;20.93;100.00;99597.00;5071618;28;20055;-85
2022/06/24 03:38:07;;;;;;;16.05;5.50;;;22.80;99.90;;;20.91;100.00;99593.69;5063595;28;20132;-85
2022/06/24 03:40:35;;;;;;;10.73;5.55;;;22.80;99.90;;;20.87;100.00;99593.41;5072584;28;20055;-85
2022/06/24 03:43:03;;;;;;;12.88;5.72;;;22.80;99.90;;;20.83;100.00;99586.78;5073383;28;20483;-85
2022/06/24 03:45:30;;;;;;;10.95;5.68;;;22.80;99.90;;;20.79;100.00;99593.94;5069755;28;20055;-85
2022/06/24 03:47:57;;;;;;;18.73;5.47;;;22.80;99.90;;;20.78;100.00;99589.53;5064564;28;20402;-85
2022/06/24 03:50:24;;;;;;;12.05;5.10;;;22.80;99.90;;;20.77;100.00;99582.31;5071710;28;20111;-85
2022/06/24 03:52:51;;;;;;;14.65;6.50;;;22.80;99.90;;;20.77;100.00;99588.69;5064308;28;20047;-84
2022/06/24 03:55:19;;;;;;;11.32;5.10;;;22.80;99.90;;;20.77;100.00;99588.69;5060115;28;20036;-85
2022/06/24 03:57:47;;;;;;;11.60;4.95;;;22.70;99.90;;;20.81;100.00;99588.97;5072877;28;20048;-86
2022/06/24 04:00:15;;;;;;;12.77;5.30;;;22.80;99.90;;;20.79;100.00;99571.81;5072306;28;20103;-85
2022/06/24 04:02:44;;;;;;;11.93;5.47;;;22.70;99.90;;;20.76;100.00;99569.63;5072641;28;20052;-85
2022/06/24 04:05:11;;;;;;;12.60;5.18;;;22.70;99.90;;;20.72;100.00;99568.50;5071294;28;20090;-84
2022/06/24 04:07:39;;;;;;;13.63;5.25;;;22.70;99.90;;;20.70;100.00;99583.44;5066890;28;20113;-84
2022/06/24 04:10:07;;;;;;;11.10;5.25;;;22.70;99.90;;;20.66;100.00;99571.25;5065462;28;20486;-82
2022/06/24 04:12:35;;;;;;;8.45;4.72;;;22.60;99.90;;;20.65;100.00;99564.06;5056939;28;20052;-82
2022/06/24 04:15:18;;;;;;;10.88;5.00;;;22.60;99.90;;;20.62;100.00;99567.38;5065373;28;20119;-82
2022/06/24 04:17:47;;;;;;;9.18;4.80;;;22.60;99.90;;;20.60;100.00;99560.44;5070172;28;20095;-82
2022/06/24 04:20:15;;;;;;;8.93;4.80;;;22.60;99.90;;;20.58;100.00;99560.72;5072024;28;20036;-82
2022/06/24 04:22:43;;;;;;;9.52;5.57;;;22.60;99.90;;;20.54;100.00;99551.28;5063770;28;20083;-82
2022/06/24 04:25:12;;;;;;;11.35;4.20;;;22.60;99.90;;;20.51;100.00;99540.81;5060267;28;20406;-82
2022/06/24 04:27:40;;;;;;;9.23;4.25;;;22.60;99.90;;;20.48;100.00;99539.41;5054780;28;20567;-83
2022/06/24 04:30:12;;;;;;;8.82;4.45;;;22.60;99.90;;;20.45;100.00;99536.38;5070483;28;20495;-82
2022/06/24 04:32:40;;;;;;;9.13;4.65;;;22.50;99.90;;;20.46;100.00;99549.91;5072124;28;20044;-81
2022/06/24 04:35:08;;;;;;;11.48;5.00;;;22.50;99.90;;;20.45;100.00;99555.72;5072321;28;20044;-82
2022/06/24 04:37:37;;;;;;;10.05;4.90;;;22.50;99.90;;;20.46;100.00;99562.91;5063323;28;20040;-82
2022/06/24 04:40:07;;;;;;;10.30;5.00;;;22.50;99.90;;;20.49;100.00;99568.72;5066262;28;20422;-81
2022/06/24 04:42:34;;;;;;;9.40;5.43;;;22.50;99.90;;;20.52;100.00;99575.63;5054944;28;20128;-81
2022/06/24 04:45:02;;;;;;;9.40;5.28;;;22.50;99.90;;;20.54;100.00;99584.47;5061628;28;20040;-80
2022/06/24 04:47:30;;;;;;;14.52;5.95;;;22.50;99.90;;;20.56;100.00;99575.91;5062883;28;20047;-80
2022/06/24 04:49:58;;;;;;;11.40;6.43;;;22.50;99.90;;;20.55;100.00;99574.25;5053687;28;20091;-84
2022/06/24 04:52:25;;;;;;;12.98;6.72;;;22.50;99.90;;;20.54;100.00;99559.59;5052353;28;20041;-87
2022/06/24 04:54:52;;;;;;;10.27;5.70;;;22.50;99.90;;;20.55;100.00;99564.03;5072367;28;20045;-83
2022/06/24 04:57:20;;;;;;;9.13;6.18;;;22.50;99.90;;;20.54;100.00;99567.88;5061072;28;20068;-88
2022/06/24 04:59:47;;;;;;;13.32;6.40;;;22.50;99.90;;;20.54;100.00;99570.63;5056561;28;20049;-87
2022/06/24 05:02:14;;;;;;;11.13;6.32;;;22.50;99.90;;;20.49;100.00;99573.41;5068729;28;20125;-87
2022/06/24 05:04:43;;;;;;;11.15;7.10;;;22.50;99.90;;;20.50;100.00;99586.13;5060759;28;20506;-87
2022/06/24 05:07:10;;;;;;;11.68;6.97;;;22.50;99.90;;;20.48;100.00;99582.81;5067459;28;20095;-88
2022/06/24 05:09:38;;;;;;;11.05;6.78;;;22.50;99.90;;;20.49;100.00;99576.19;5056687;28;20044;-87
2022/06/24 05:12:06;;;;;;;12.63;6.78;;;22.50;99.90;;;20.51;100.00;99574.78;5067608;28;20044;-87
2022/06/24 05:14:34;;;;;;;10.18;6.90;;;22.50;99.90;;;20.48;100.00;99580.84;5065768;28;20124;-87
2022/06/24 05:17:02;;;;;;;12.30;7.80;;;22.50;99.90;;;20.48;100.00;99580.03;5065191;28;20052;-88
2022/06/24 05:19:29;;;;;;;10.70;6.97;;;22.50;99.90;;;20.46;100.00;99591.34;5064890;28;20132;-87
2022/06/24 05:22:00;;;;;;;13.77;7.68;;;22.40;99.90;;;20.52;100.00;99586.69;5060007;28;20045;-88
2022/06/24 05:24:27;;;;;;;13.90;7.25;;;22.40;99.90;;;20.55;100.00;99580.63;5071983;28;20151;-89
2022/06/24 05:26:55;;;;;;;11.13;7.70;;;22.40;99.90;;;20.54;100.00;99581.69;5068148;28;20037;-89
2022/06/24 05:29:22;;;;;;;10.82;6.80;;;22.40;99.90;;;20.51;100.00;99577.56;5064704;28;20072;-89
2022/06/24 05:31:50;;;;;;;11.77;7.22;;;22.40;99.90;;;20.57;100.00;99597.75;5070959;28;20253;-94
2022/06/24 05:34:17;;;;;;;9.77;7.38;;;22.40;99.90;;;20.60;100.00;99593.63;5070860;28;20048;-91
2022/06/24 05:36:45;;;;;;;10.65;7.65;;;22.40;99.90;;;20.56;100.00;99593.34;5061519;28;20405;-92
2022/06/24 05:39:14;;;;;;;10.98;8.05;;;22.40;99.90;;;20.55;100.00;99583.38;5058407;28;20120;-92
2022/06/24 05:41:43;;;;;;;13.07;8.77;;;22.40;99.90;;;20.56;100.00;99581.44;5052765;28;20132;-94
2022/06/24 05:44:11;;;;;;;10.45;8.50;;;22.40;99.90;;;20.55;100.00;99591.66;5069315;28;20072;-92
2022/06/24 05:46:40;;;;;;;12.50;8.52;;;22.40;99.90;;;20.54;100.00;99595.53;5052306;28;20057;-91
2022/06/24 05:49:08;;;;;;;14.05;8.80;;;22.40;99.90;;;20.53;100.00;99588.34;5052272;28;20049;-92
2022/06/24 05:51:36;;;;;;;10.27;7.95;;;22.40;99.90;;;20.55;100.00;99593.59;5062575;28;20040;-92
2022/06/24 05:57:00;;;;;;;13.82;9.15;;;22.40;99.90;;;20.60;100.00;99594.47;5003629;28;20119;-91
2022/06/24 05:59:27;;;;;;;14.38;10.20;;;22.40;99.90;;;20.67;100.00;99592.25;5061243;28;20502;-92
2022/06/24 06:01:55;;;;;;;15.00;11.93;;;22.40;99.90;;;20.69;100.00;99595.59;5054489;28;20051;-93
2022/06/24 06:04:22;;;;;;;19.00;12.63;;;22.50;99.90;;;20.73;100.00;99589.50;5052845;28;20162;-89
2022/06/24 06:06:49;;;;;;;17.25;12.27;;;22.50;99.90;;;20.77;100.00;99583.16;5069470;28;20091;-90
2022/06/24 06:09:16;;;;;;;16.90;13.13;;;22.50;99.90;;;20.84;100.00;99582.88;5071774;28;20045;-90
2022/06/24 06:11:44;;;;;;;16.95;12.80;;;22.40;99.90;;;20.87;100.00;99585.94;5073456;28;20044;-89
2022/06/24 06:14:12;;;;;;;14.65;12.52;;;22.50;99.90;;;20.91;100.00;99579.88;5078042;23;20179;-85
2022/06/24 06:16:40;;;;;;;18.80;12.73;;;22.50;99.90;;;20.90;100.00;99576.25;5069064;28;20047;-85
2022/06/24 06:19:07;;;;;;;17.92;12.18;;;22.50;99.90;;;20.95;100.00;99572.66;5067925;28;20049;-86
2022/06/24 06:21:34;;;;;;;18.15;13.10;;;22.50;99.90;;;20.97;100.00;99575.97;5049995;28;20116;-85
2022/06/24 06:24:01;;;;;;;16.48;12.45;;;22.50;99.90;;;20.94;100.00;99571.81;5058938;28;20112;-85
2022/06/24 06:26:29;;;;;;;17.60;12.90;;;22.50;99.90;;;20.95;100.00;99562.41;5067947;28;20055;-85
2022/06/24 06:28:56;;;;;;;16.50;13.25;;;22.50;99.90;;;20.95;100.00;99562.41;5065651;28;20047;-85
2022/06/24 06:31:25;;;;;;;18.00;12.90;;;22.50;99.90;;;21.03;100.00;99558.28;5058734;28;20076;-85
2022/06/24 06:33:52;;;;;;;16.63;12.48;;;22.50;99.90;;;21.01;100.00;99555.78;5049811;28;20059;-85
2022/06/24 06:36:19;;;;;;;14.60;12.48;;;22.60;99.90;;;21.01;100.00;99555.78;5049878;28;20045;-85
2022/06/24 06:38:46;;;;;;;16.23;12.25;;;22.60;99.90;;;21.00;100.00;99551.38;5059344;28;20140;-84
2022/06/24 06:41:14;;;;;;;13.43;11.65;;;22.60;99.90;;;21.04;100.00;99554.41;5067679;28;20037;-84
2022/06/24 06:43:41;;;;;;;14.18;11.48;;;22.60;99.90;;;20.98;100.00;99544.44;5069133;28;20675;-84
2022/06/24 06:46:10;;;;;;;13.88;11.50;;;22.60;99.90;;;20.92;100.00;99551.91;5070092;28;20052;-83
2022/06/24 06:48:39;;;;;;;14.35;11.18;;;22.60;99.90;;;20.85;100.00;99546.66;5068305;28;20060;-84
2022/06/24 06:51:07;;;;;;;16.67;11.63;;;22.60;99.90;;;20.84;100.00;99550.53;5068291;28;20705;-84
2022/06/24 06:53:34;;;;;;;16.83;10.55;;;22.50;99.90;;;20.82;100.00;99546.38;5065947;28;20054;-81
2022/06/24 06:56:01;;;;;;;14.05;10.38;;;22.50;99.90;;;20.84;100.00;99542.22;5069658;28;20118;-83
2022/06/24 06:58:29;;;;;;;17.42;10.48;;;22.50;99.90;;;20.87;100.00;99538.09;5056368;28;20057;-83
2022/06/24 07:00:56;;;;;;;13.20;9.98;;;22.50;99.90;;;20.86;100.00;99541.94;5068146;28;20116;-83
2022/06/24 07:03:24;;;;;;;12.85;9.88;;;22.50;99.90;;;20.84;100.00;99538.63;5073166;28;20045;-82
2022/06/24 07:05:53;;;;;;;13.68;10.07;;;22.50;99.90;;;20.85;100.00;99540.31;5068504;28;20078;-83
2022/06/24 07:08:20;;;;;;;14.30;9.82;;;22.50;99.90;;;20.82;100.00;99541.66;5060005;28;20415;-80
2022/06/24 07:10:47;;;;;;;12.45;9.23;;;22.50;99.90;;;20.85;100.00;99545.84;5071890;28;20098;-82
2022/06/24 07:13:15;;;;;;;14.95;9.43;;;22.50;99.90;;;20.89;100.00;99545.00;5071852;28;20052;-82
2022/06/24 07:15:43;;;;;;;13.93;6.70;;;22.50;99.90;;;20.97;100.00;99543.59;5065542;28;20153;-82
2022/06/24 07:18:10;;;;;;;11.82;6.30;;;22.50;99.90;;;21.07;100.00;99538.06;5066616;28;20128;-82
2022/06/24 07:20:37;;;;;;;12.65;5.40;;;22.50;99.90;;;21.13;100.00;99549.13;5069851;28;20033;-82
2022/06/24 07:23:06;;;;;;;11.45;5.10;;;22.60;99.90;;;21.17;100.00;99541.94;5065966;28;20105;-84
2022/06/24 07:25:33;;;;;;;11.60;4.97;;;22.50;99.90;;;21.15;100.00;99560.75;5057662;28;20057;-82
2022/06/24 07:28:01;;;;;;;11.00;4.55;;;22.60;99.90;;;21.07;100.00;99560.19;5072733;28;20582;-82
2022/06/24 07:30:30;;;;;;;7.53;4.35;;;22.60;99.90;;;21.00;100.00;99569.88;5071757;28;20489;-82
2022/06/24 07:32:57;;;;;;;12.45;4.53;;;22.60;99.90;;;20.90;100.00;99570.72;5072026;28;20051;-83
2022/06/24 07:35:25;;;;;;;11.77;4.63;;;22.60;99.90;;;20.84;100.00;99572.66;5068656;28;20047;-85
2022/06/24 07:37:52;;;;;;;11.00;4.72;;;22.50;99.90;;;20.73;100.00;99575.69;5067553;28;20036;-85
2022/06/24 07:40:21;;;;;;;8.93;5.05;;;22.50;99.90;;;20.63;100.00;99591.16;5068247;28;20079;-84
2022/06/24 07:42:48;;;;;;;6.65;3.63;;;22.50;99.90;;;20.44;100.00;99595.50;5072227;28;20067;-84
2022/06/24 07:45:15;;;;;;;5.00;2.95;;;22.40;99.90;;;20.28;100.00;99594.66;5070886;28;20051;-84
2022/06/24 07:47:43;;;;;;;6.97;3.33;;;22.40;99.90;;;20.16;100.00;99589.34;5072516;28;20065;-82
2022/06/24 07:50:10;;;;;;;5.38;2.60;;;22.30;99.90;;;20.02;100.00;99585.44;5068525;28;20490;-81
2022/06/24 07:52:37;;;;;;;5.20;2.30;;;22.30;99.90;;;19.90;100.00;99589.25;5070880;28;20052;-82
2022/06/24 07:57:51;;;;;;;6.15;1.70;;;22.20;99.90;;;19.69;100.00;99598.50;5067662;28;20097;-81
2022/06/24 08:00:19;;;;;;;7.30;2.30;;;22.10;99.90;;;19.63;100.00;99599.53;5063669;28;20144;-82
2022/06/24 08:02:47;;;;;;;4.97;2.08;;;22.10;99.90;;;19.57;100.00;99592.34;5070232;28;20043;-81
2022/06/24 08:05:15;;;;;;;5.90;2.03;;;22.00;99.90;;;19.51;100.00;99597.00;5072378;28;20139;-81
2022/06/24 08:07:43;;;;;;;6.05;2.22;;;22.00;99.90;;;19.52;100.00;99602.25;5071992;28;20051;-85
2022/06/24 08:10:10;;;;;;;5.55;2.33;;;22.00;99.90;;;19.50;100.00;99595.34;5064908;28;20041;-81
2022/06/24 08:12:38;;;;;;;5.35;2.95;;;21.90;99.90;;;19.50;100.00;99593.41;5072399;28;20055;-80
2022/06/24 08:15:07;;;;;;;6.95;2.88;;;21.90;99.90;;;19.48;100.00;99598.38;5070456;28;20068;-81
2022/06/24 08:17:35;;;;;;;7.32;3.45;;;21.90;99.90;;;19.50;100.00;99609.97;5072520;28;20122;-82
2022/06/24 08:20:02;;;;;;;9.70;4.40;;;21.90;99.90;;;19.53;100.00;99603.94;5068940;28;20036;-81
2022/06/24 08:22:29;;;;;;;10.35;5.15;;;21.80;99.90;;;19.54;100.00;99604.75;5071672;28;20831;-82
2022/06/24 08:24:56;;;;;;;8.68;5.15;;;21.80;99.90;;;19.58;100.00;99607.81;5072373;28;20573;-82
2022/06/24 08:27:23;;;;;;;9.50;5.50;;;21.80;99.90;;;19.59;100.00;99604.81;5071074;28;20376;-82
2022/06/24 08:29:51;;;;;;;11.40;5.85;;;21.80;99.90;;;19.59;100.00;99598.44;5070667;28;20045;-81
2022/06/24 08:32:19;;;;;;;10.90;5.93;;;21.80;99.90;;;19.62;100.00;99603.41;5068409;28;20037;-81
2022/06/24 08:34:46;;;;;;;10.35;6.85;;;21.80;99.90;;;19.61;100.00;99601.75;5070415;28;20040;-82
2022/06/24 08:37:14;;;;;;;13.00;9.05;;;21.80;99.90;;;19.60;100.00;99602.88;5070209;28;20098;-82
2022/06/24 08:39:41;;;;;;;12.65;8.60;;;21.80;99.90;;;19.60;100.00;99608.38;5070390;28;20063;-83
2022/06/24 08:42:13;;;;;;;22.20;12.93;;;21.80;99.90;;;19.63;100.00;99613.34;5071006;28;20119;-83
2022/06/24 08:44:41;;;;;;;22.60;14.85;;;21.80;99.90;;;19.63;100.00;99616.09;5067017;28;20148;-81
2022/06/24 08:47:15;;;;;;;24.17;15.25;;;21.80;99.90;;;19.56;100.00;99612.78;5061459;28;20045;-83
2022/06/24 08:49:44;;;;;;;20.02;14.27;;;21.80;99.90;;;19.53;100.00;99614.97;5070705;28;20463;-83
2022/06/24 08:52:13;;;;;;;23.05;14.68;;;21.70;99.90;;;19.56;100.00;99619.13;5071160;28;20040;-83
2022/06/24 08:54:43;;;;;;;19.45;13.65;;;21.80;99.90;;;19.58;100.00;99613.34;5071769;28;20045;-81
2022/06/24 08:57:12;;;;;;;25.60;15.75;;;21.80;99.90;;;19.56;100.00;99623.81;5064990;28;20510;-82
2022/06/24 08:59:42;;;;;;;21.33;14.07;;;21.80;99.90;;;19.54;100.00;99626.84;5068054;28;20114;-81
2022/06/24 09:02:14;;;;;;;20.20;14.13;;;21.80;99.90;;;19.50;100.00;99621.00;5071001;28;20518;-82
2022/06/24 09:04:45;;;;;;;24.30;13.70;;;21.70;99.90;;;19.48;100.00;99620.44;5068927;28;20464;-80
2022/06/24 09:07:23;;;;;;;21.55;13.32;;;21.70;99.90;;;19.46;100.00;99617.13;5067162;28;20048;-81
2022/06/24 09:09:58;;;;;;;22.08;12.32;;;21.70;99.90;;;19.46;100.00;99627.34;5062708;28;20049;-80
2022/06/24 09:12:30;;;;;;;18.95;10.05;;;21.70;99.90;;;19.43;100.00;99631.44;5063913;28;20150;-80
2022/06/24 09:15:02;;;;;;;;;;;21.70;99.90;;;19.38;100.00;99628.66;5061358;28;20055;-80
2022/06/24 09:17:30;;;;;;;12.38;8.05;;;21.60;99.90;;;19.35;100.00;99620.91;5066031;28;19928;-81
2022/06/24 09:20:12;;;;;;;13.52;8.05;;;21.60;99.90;;;19.34;100.00;99622.00;5060841;28;20124;-81
2022/06/24 09:22:40;;;;;;;11.55;7.13;;;21.70;99.90;;;19.30;100.00;99618.09;5071121;28;20759;-80
2022/06/24 09:25:09;;;;;;;10.13;6.90;;;21.60;99.90;;;19.24;100.00;99613.66;5065398;28;20051;-80
2022/06/24 09:27:42;;;;;;;14.23;6.97;;;21.60;99.90;;;19.23;100.00;99617.50;5065463;28;20058;-81
2022/06/24 09:30:11;;;;;;;10.52;6.40;;;21.60;99.90;;;19.19;100.00;99614.47;5062827;28;20048;-80
2022/06/24 09:32:50;;;;;;;10.90;5.13;;;21.60;99.90;;;19.18;100.00;99620.22;5068311;28;20044;-80
2022/06/24 09:35:21;;;;;;;8.05;4.90;;;21.50;99.90;;;19.14;100.00;99612.47;5065648;28;20147;-80
2022/06/24 09:37:50;;;;;;;9.52;5.00;;;21.50;99.90;;;19.10;100.00;99622.38;5061899;28;20113;-80
2022/06/24 09:40:27;;;;;;;10.02;5.57;;;21.60;99.90;;;19.13;100.00;99626.53;5078511;28;20094;-80
2022/06/24 09:42:57;;;;;;;10.27;5.45;;;21.50;99.90;;;19.20;100.00;99624.38;5063075;28;20082;-81
2022/06/24 09:45:25;;;;;;;9.30;6.00;;;21.50;99.90;;;19.24;100.00;99628.25;5065178;28;20537;-81
2022/06/24 09:47:54;;;;;;;8.10;6.00;;;21.50;99.90;;;19.29;100.00;99625.56;5069417;28;20462;-81
2022/06/24 09:50:23;;;;;;;9.70;6.13;;;21.50;99.90;;;19.31;100.00;99619.78;5066480;28;20041;-81
2022/06/24 09:52:51;;;;;;;7.57;5.53;;;21.50;99.90;;;19.33;100.00;99620.34;5068829;28;20102;-80
2022/06/24 09:55:20;;;;;;;9.80;5.80;;;21.50;99.90;;;19.35;100.00;99618.16;5063604;28;20050;-81
2022/06/24 09:57:48;;;;;;;7.63;5.38;;;21.50;99.90;;;19.37;100.00;99615.97;5067019;28;20044;-81
2022/06/24 10:03:05;;;;;;;9.57;5.78;;;21.60;99.90;;;19.48;100.00;99617.69;5059859;28;20102;-79
2022/06/24 10:05:36;;;;;;;7.10;4.85;;;21.60;99.90;;;19.59;100.00;99610.31;5063881;28;20048;-82
2022/06/24 10:08:06;;;;;;;8.38;5.32;;;21.60;99.90;;;19.77;100.00;99613.75;5066131;28;20114;-82
2022/06/24 10:10:36;;;;;;;8.07;5.05;;;21.60;99.90;;;19.97;100.00;99618.53;5060937;28;20043;-82
2022/06/24 10:13:14;;;;;;;7.80;5.15;;;21.60;99.90;;;20.22;100.00;99607.63;5062547;28;20041;-80
2022/06/24 10:15:41;;;;;;;8.63;5.45;;;21.70;99.90;;;20.48;100.00;99611.25;5067350;28;20132;-86
2022/06/24 10:18:10;;;;;;;12.23;4.95;;;21.80;99.90;;;20.67;100.00;99611.63;5068132;28;20048;-80
2022/06/24 10:20:44;;;;;;;7.45;5.05;;;21.80;99.90;;;20.89;100.00;99611.38;5063010;28;20061;-82
2022/06/24 10:23:43;;;;;;;7.78;4.75;;;22.00;99.90;;;21.19;100.00;99611.66;5063963;28;20044;-83
2022/06/24 10:26:16;;;;;;;10.70;4.28;;;22.00;99.90;;;21.46;100.00;99606.69;5062374;28;20048;-86